Time;durP1;ratioP1;P1;durP2;ratioP2;P2;SDS_P1;SDS_P2;PMS_P1;PMS_P2;Temp;Humidity;BMP_temperature;BMP_pressure;BME280_temperature;BME280_humidity;BME280_pressure;Samples;Min_cycle;Max_cycle;Signal;HPM_P1;HPM_P2
2022/01/12 00:00:06;;;;;;;36.13;12.37;;;-4.50;99.90;;;;;;4403885;28;662076;-75
2022/01/12 00:02:53;;;;;;;56.10;16.13;;;-4.50;99.90;;;;;;4387936;28;660630;-76
2022/01/12 00:05:43;;;;;;;50.63;15.87;;;-4.50;99.90;;;;;;4400210;28;660610;-76
2022/01/12 00:08:31;;;;;;;44.80;12.93;;;-4.40;99.90;;;;;;4374203;28;661454;-76
2022/01/12 00:11:20;;;;;;;48.23;13.43;;;-4.40;99.90;;;;;;4378005;28;660739;-75
2022/01/12 00:14:08;;;;;;;43.00;13.43;;;-4.40;99.90;;;;;;4372362;28;660621;-75
2022/01/12 00:16:59;;;;;;;43.83;14.50;;;-4.30;99.90;;;;;;4406670;28;660632;-74
2022/01/12 00:19:46;;;;;;;45.70;13.80;;;-4.30;99.90;;;;;;4380126;28;661880;-76
2022/01/12 00:22:37;;;;;;;43.03;13.70;;;-4.30;99.90;;;;;;4373262;28;661706;-75
2022/01/12 00:25:31;;;;;;;44.83;14.00;;;-4.30;99.90;;;;;;4371570;28;661621;-75
2022/01/12 00:34:29;;;;;;;47.27;14.67;;;-4.20;99.90;;;;;;4379337;28;661004;-74
2022/01/12 00:37:16;;;;;;;49.17;15.40;;;-4.20;99.90;;;;;;4401853;28;660281;-75
2022/01/12 00:40:07;;;;;;;55.17;17.83;;;-4.20;99.90;;;;;;4371150;28;661551;-74
2022/01/12 00:42:54;;;;;;;61.97;19.85;;;-4.20;99.90;;;;;;4385174;28;661218;-74
2022/01/12 00:45:43;;;;;;;78.68;22.98;;;-4.30;99.90;;;;;;4385820;28;660583;-76
2022/01/12 00:48:30;;;;;;;63.63;22.17;;;-4.30;99.90;;;;;;4404116;28;661189;-75
2022/01/12 00:51:18;;;;;;;64.30;19.77;;;-4.20;99.90;;;;;;4372976;28;660839;-74
2022/01/12 00:54:06;;;;;;;67.43;20.50;;;-4.30;99.90;;;;;;4401438;28;661501;-75
2022/01/12 00:56:55;;;;;;;63.03;20.43;;;-4.30;99.90;;;;;;4373622;28;661332;-74
2022/01/12 00:59:43;;;;;;;69.97;21.13;;;-4.30;99.90;;;;;;4380317;28;660774;-74
2022/01/12 01:02:30;;;;;;;91.60;27.27;;;-4.30;99.90;;;;;;4397556;28;660885;-76
2022/01/12 01:05:21;;;;;;;72.40;23.93;;;-4.30;99.90;;;;;;4373897;28;661762;-76
2022/01/12 01:08:09;;;;;;;61.58;21.00;;;-4.20;99.90;;;;;;4373392;28;661570;-75
2022/01/12 01:10:57;;;;;;;59.33;20.87;;;-4.20;99.90;;;;;;4396645;28;660393;-75
2022/01/12 01:13:56;;;;;;;70.90;22.50;;;-4.20;99.90;;;;;;4373731;28;661279;-77
2022/01/12 01:16:54;;;;;;;62.17;21.07;;;-4.10;99.90;;;;;;4349683;28;661179;-75
2022/01/12 01:25:51;;;;;;;63.97;21.13;;;-4.10;99.90;;;;;;4365994;28;661609;-75
2022/01/12 01:28:38;;;;;;;66.23;20.30;;;-4.20;99.90;;;;;;4367613;28;661163;-75
2022/01/12 01:31:31;;;;;;;66.77;22.90;;;-4.20;99.90;;;;;;4393967;28;660439;-75
2022/01/12 01:34:18;;;;;;;58.30;21.43;;;-4.20;99.90;;;;;;4346647;28;661747;-75
2022/01/12 01:37:06;;;;;;;66.47;21.60;;;-4.20;99.90;;;;;;4391882;28;661078;-75
2022/01/12 01:39:53;;;;;;;64.23;21.07;;;-4.30;99.90;;;;;;4377566;28;660624;-74
2022/01/12 01:42:56;;;;;;;54.67;18.27;;;-4.30;99.90;;;;;;4400792;28;660390;-75
2022/01/12 01:55:00;;;;;;;53.20;16.70;;;-4.20;99.90;;;;;;4369321;28;661292;-75
2022/01/12 01:57:47;;;;;;;45.07;15.37;;;-4.20;99.90;;;;;;4372663;28;660939;-75
2022/01/12 02:00:35;;;;;;;38.80;14.10;;;-4.20;99.90;;;;;;4400170;28;661183;-75
2022/01/12 02:03:26;;;;;;;42.90;13.70;;;-4.20;99.90;;;;;;4373738;28;660653;-76
2022/01/12 02:06:15;;;;;;;42.33;14.25;;;-4.10;99.90;;;;;;4368906;28;660482;-75
2022/01/12 02:09:03;;;;;;;39.47;12.50;;;-4.20;99.90;;;;;;4372434;28;661166;-74
2022/01/12 02:11:51;;;;;;;43.77;13.20;;;-4.10;99.90;;;;;;4391532;28;661829;-75
2022/01/12 02:14:38;;;;;;;20.93;8.87;;;-4.20;99.90;;;;;;4373561;28;661414;-75
2022/01/12 02:17:31;;;;;;;24.47;8.23;;;-4.10;99.90;;;;;;4391669;28;659537;-75
2022/01/12 02:35:07;;;;;;;27.80;10.33;;;-4.10;99.90;;;;;;4371404;28;659838;-75
2022/01/12 02:35:57;;;;;;;31.70;10.93;;;-4.00;99.90;;;;;;4372301;28;659776;-74
2022/01/12 02:41:51;;;;;;;21.75;8.13;;;-4.00;99.90;;;;;;4371326;28;660467;-74
2022/01/12 02:50:56;;;;;;;22.42;8.43;;;-3.90;99.90;;;;;;4375056;28;660159;-75
2022/01/12 02:53:45;;;;;;;25.03;8.83;;;-3.90;99.90;;;;;;4371254;28;659365;-76
2022/01/12 02:56:34;;;;;;;20.15;8.48;;;-3.90;99.90;;;;;;4373849;28;659241;-76
2022/01/12 02:59:22;;;;;;;22.97;8.43;;;-3.90;99.90;;;;;;4375655;28;659900;-75
2022/01/12 03:02:25;;;;;;;25.90;8.77;;;-3.90;99.90;;;;;;4392612;28;660245;-75
2022/01/12 03:08:36;;;;;;;22.53;7.87;;;-4.00;99.90;;;;;;4284012;28;659979;-75
2022/01/12 03:11:26;;;;;;;23.07;8.67;;;-4.00;99.90;;;;;;4301677;28;659769;-75
2022/01/12 03:14:13;;;;;;;25.50;8.50;;;-4.00;99.90;;;;;;4302471;28;659570;-75
2022/01/12 03:17:01;;;;;;;22.77;8.93;;;-4.00;99.90;;;;;;4324497;28;659664;-74
2022/01/12 03:19:48;;;;;;;24.47;8.87;;;-4.00;99.90;;;;;;4306405;28;660019;-76
2022/01/12 03:22:36;;;;;;;22.70;8.40;;;-4.00;99.90;;;;;;4323848;28;660159;-75
2022/01/12 03:25:23;;;;;;;21.45;8.68;;;-4.10;99.90;;;;;;4300169;28;660150;-74
2022/01/12 03:28:12;;;;;;;22.20;9.03;;;-4.10;99.90;;;;;;4322592;28;659752;-74
2022/01/12 03:31:07;;;;;;;20.63;8.47;;;-4.10;99.90;;;;;;4302929;28;660007;-75
2022/01/12 03:33:58;;;;;;;23.43;8.63;;;-4.20;99.90;;;;;;4305283;28;660418;-74
2022/01/12 03:37:15;;;;;;;22.73;8.83;;;-4.20;99.90;;;;;;4304457;28;660515;-74
2022/01/12 03:40:01;;;;;;;25.50;9.65;;;-4.20;99.90;;;;;;4306536;28;659656;-74
2022/01/12 03:42:49;;;;;;;26.00;10.40;;;-4.20;99.90;;;;;;4313010;28;659978;-75
2022/01/12 03:45:38;;;;;;;25.10;9.43;;;-4.20;99.90;;;;;;4363442;28;660614;-75
2022/01/12 03:48:25;;;;;;;25.60;8.23;;;-4.20;99.90;;;;;;4374387;28;659715;-75
2022/01/12 03:51:13;;;;;;;23.90;8.87;;;-4.20;99.90;;;;;;4370820;28;659971;-75
2022/01/12 03:54:00;;;;;;;25.23;9.03;;;-4.20;99.90;;;;;;4399628;28;660385;-74
2022/01/12 03:56:48;;;;;;;26.73;9.60;;;-4.30;99.90;;;;;;4377056;28;660683;-76
2022/01/12 03:59:36;;;;;;;20.97;8.30;;;-4.30;99.90;;;;;;4396252;28;659386;-75
2022/01/12 04:02:25;;;;;;;26.80;9.83;;;-4.20;99.90;;;;;;4372268;28;660233;-75
2022/01/12 04:05:29;;;;;;;29.27;10.45;;;-4.30;99.90;;;;;;4371176;28;660143;-74
2022/01/12 04:08:19;;;;;;;27.27;10.23;;;-4.30;99.90;;;;;;4353430;28;661018;-76
2022/01/12 04:11:07;;;;;;;26.00;9.68;;;-4.40;99.90;;;;;;4374599;28;661121;-74
2022/01/12 04:13:55;;;;;;;27.70;10.13;;;-4.40;99.90;;;;;;4393499;28;660166;-74
2022/01/12 04:16:42;;;;;;;28.70;10.35;;;-4.40;99.90;;;;;;4373797;28;660422;-74
2022/01/12 04:19:31;;;;;;;33.00;10.33;;;-4.40;99.90;;;;;;4387758;28;661661;-74
2022/01/12 04:25:22;;;;;;;27.33;10.03;;;-4.40;99.90;;;;;;4370633;28;661326;-75
2022/01/12 04:28:09;;;;;;;28.60;9.67;;;-4.40;99.90;;;;;;4371626;28;661027;-74
2022/01/12 04:30:57;;;;;;;32.57;10.00;;;-4.40;99.90;;;;;;4386652;28;659913;-75
2022/01/12 04:33:45;;;;;;;27.63;9.80;;;-4.50;99.90;;;;;;4395861;28;662210;-75
2022/01/12 04:36:34;;;;;;;29.00;9.10;;;-4.50;99.90;;;;;;4373275;28;661016;-75
2022/01/12 04:39:22;;;;;;;29.27;10.80;;;-4.50;99.90;;;;;;4378628;28;660029;-75
2022/01/12 04:42:10;;;;;;;28.85;10.15;;;-4.50;99.90;;;;;;4395663;28;661088;-73
2022/01/12 04:45:14;;;;;;;27.70;10.30;;;-4.50;99.90;;;;;;4388562;28;660603;-75
2022/01/12 04:48:08;;;;;;;26.38;9.50;;;-4.60;99.90;;;;;;4384126;28;661075;-74
2022/01/12 04:50:57;;;;;;;26.77;9.67;;;-4.60;99.90;;;;;;4386586;28;659674;-73
2022/01/12 04:53:46;;;;;;;29.97;10.10;;;-4.50;99.90;;;;;;4386005;28;660240;-73
2022/01/12 04:56:33;;;;;;;28.80;9.40;;;-4.50;99.90;;;;;;4387662;28;660689;-73
2022/01/12 04:59:21;;;;;;;28.70;9.97;;;-4.50;99.90;;;;;;4412742;28;659760;-73
2022/01/12 05:06:23;;;;;;;27.53;10.83;;;-4.50;99.90;;;;;;4389997;28;660460;-73
2022/01/12 05:08:37;;;;;;;22.63;8.97;;;-4.50;99.90;;;;;;4360488;28;660048;-74
2022/01/12 05:14:38;;;;;;;22.20;9.30;;;-4.60;99.90;;;;;;4386254;28;661812;-74
2022/01/12 05:17:26;;;;;;;26.70;10.27;;;-4.60;99.90;;;;;;4389591;28;659816;-73
2022/01/12 05:20:16;;;;;;;25.63;9.60;;;-4.60;99.90;;;;;;4388118;28;660769;-75
2022/01/12 05:23:12;;;;;;;25.03;9.67;;;-4.60;99.90;;;;;;4386422;28;660959;-73
2022/01/12 05:26:06;;;;;;;28.47;10.30;;;-4.50;99.90;;;;;;4384023;28;659762;-75
2022/01/12 05:28:58;;;;;;;25.83;10.17;;;-4.60;99.90;;;;;;4382112;28;660835;-74
2022/01/12 05:31:47;;;;;;;25.77;10.53;;;-4.60;99.90;;;;;;4388227;28;661475;-74
2022/01/12 05:34:37;;;;;;;25.73;9.43;;;-4.60;99.90;;;;;;4386366;28;661219;-73
2022/01/12 05:37:28;;;;;;;25.03;9.80;;;-4.60;99.90;;;;;;4383777;28;660265;-75
2022/01/12 05:40:20;;;;;;;23.83;9.83;;;-4.60;99.90;;;;;;4388797;28;661095;-75
2022/01/12 05:43:10;;;;;;;23.93;9.80;;;-4.50;99.90;;;;;;4363635;28;660661;-74
2022/01/12 05:46:11;;;;;;;27.15;9.60;;;-4.50;99.90;;;;;;4388115;28;659672;-74
2022/01/12 05:52:05;;;;;;;28.50;9.70;;;-4.50;99.90;;;;;;4390223;28;661297;-74
2022/01/12 05:54:52;;;;;;;22.95;9.55;;;-4.60;99.90;;;;;;4389945;28;660193;-75
2022/01/12 05:57:40;;;;;;;21.87;9.50;;;-4.60;99.90;;;;;;4411067;28;660673;-74
2022/01/12 06:00:29;;;;;;;24.37;9.70;;;-4.60;99.90;;;;;;4386815;28;659943;-74
2022/01/12 06:03:18;;;;;;;28.13;10.67;;;-4.60;99.90;;;;;;4396771;28;659645;-74
2022/01/12 06:06:06;;;;;;;27.90;10.90;;;-4.60;99.90;;;;;;4383488;28;660925;-74
2022/01/12 06:08:54;;;;;;;26.70;10.10;;;-4.60;99.90;;;;;;4384975;28;661719;-74
2022/01/12 06:11:43;;;;;;;30.70;10.63;;;-4.60;99.90;;;;;;4393285;28;660349;-74
2022/01/12 06:14:34;;;;;;;25.77;10.97;;;-4.60;99.90;;;;;;4368986;28;660385;-74
2022/01/12 06:17:22;;;;;;;29.43;11.00;;;-4.60;99.90;;;;;;4383325;28;660931;-73
2022/01/12 06:20:12;;;;;;;28.93;10.40;;;-4.60;99.90;;;;;;4384247;28;661196;-74
2022/01/12 06:23:00;;;;;;;31.87;10.80;;;-4.60;99.90;;;;;;4387947;28;661696;-74
2022/01/12 06:25:49;;;;;;;31.10;11.77;;;-4.60;99.90;;;;;;4384346;28;661162;-75
2022/01/12 06:28:41;;;;;;;33.13;11.30;;;-4.60;99.90;;;;;;4408461;28;660351;-74
2022/01/12 06:31:35;;;;;;;29.83;11.03;;;-4.70;99.90;;;;;;4382431;28;661062;-76
2022/01/12 06:34:24;;;;;;;27.53;9.20;;;-4.70;99.90;;;;;;4359589;28;661626;-75
2022/01/12 06:37:17;;;;;;;28.63;10.43;;;-4.70;99.90;;;;;;4381816;28;659712;-76
2022/01/12 06:40:06;;;;;;;22.10;9.33;;;-4.70;99.90;;;;;;4341377;28;661058;-76
2022/01/12 06:42:54;;;;;;;25.73;9.37;;;-4.70;99.90;;;;;;4400806;28;659563;-76
2022/01/12 06:45:41;;;;;;;29.83;10.23;;;-4.70;99.90;;;;;;4325825;28;659860;-76
2022/01/12 06:48:29;;;;;;;27.87;10.07;;;-4.70;99.90;;;;;;4360128;28;661078;-74
2022/01/12 06:51:16;;;;;;;22.20;9.10;;;-4.70;99.90;;;;;;4391493;28;660722;-76
2022/01/12 06:54:05;;;;;;;29.40;9.77;;;-4.70;99.90;;;;;;4370228;28;660347;-75
2022/01/12 06:56:53;;;;;;;25.90;9.43;;;-4.70;99.90;;;;;;4337154;28;659679;-77
2022/01/12 06:59:40;;;;;;;23.50;9.20;;;-4.60;99.90;;;;;;4365722;28;660124;-76
2022/01/12 07:02:28;;;;;;;26.37;10.17;;;-4.60;99.90;;;;;;4365433;28;659778;-74
2022/01/12 07:05:16;;;;;;;28.03;10.43;;;-4.70;99.90;;;;;;4382529;28;660956;-76
2022/01/12 07:08:03;;;;;;;27.23;9.77;;;-4.70;99.90;;;;;;4380147;28;661045;-75
2022/01/12 07:10:53;;;;;;;24.93;9.27;;;-4.70;99.90;;;;;;4380230;28;659536;-76
2022/01/12 07:13:41;;;;;;;26.70;10.07;;;-4.70;99.90;;;;;;4372208;28;659760;-76
2022/01/12 07:16:29;;;;;;;26.60;9.57;;;-4.70;99.90;;;;;;4363104;28;661104;-77
2022/01/12 07:20:08;;;;;;;23.37;9.80;;;-4.70;99.90;;;;;;4387816;28;659515;-77
2022/01/12 07:22:55;;;;;;;24.50;9.73;;;-4.60;99.90;;;;;;4365949;28;660081;-76
2022/01/12 07:25:43;;;;;;;26.83;9.67;;;-4.60;99.90;;;;;;4377271;28;659868;-76
2022/01/12 07:28:33;;;;;;;30.00;10.37;;;-4.60;99.90;;;;;;4396845;28;659546;-76
2022/01/12 07:31:20;;;;;;;28.73;10.23;;;-4.60;99.90;;;;;;4364969;28;661306;-76
2022/01/12 07:34:08;;;;;;;24.67;10.20;;;-4.60;99.90;;;;;;4373799;28;660663;-77
2022/01/12 07:36:55;;;;;;;24.90;10.20;;;-4.60;99.90;;;;;;4388100;28;660691;-76
2022/01/12 07:39:43;;;;;;;26.13;10.77;;;-4.60;99.90;;;;;;4372445;28;661216;-77
2022/01/12 07:42:30;;;;;;;29.02;10.80;;;-4.60;99.90;;;;;;4390045;28;661547;-76
2022/01/12 07:45:20;;;;;;;28.10;10.70;;;-4.60;99.90;;;;;;4389594;28;661331;-76
2022/01/12 07:48:07;;;;;;;27.73;10.70;;;-4.50;99.90;;;;;;4380116;28;662313;-78
2022/01/12 07:50:55;;;;;;;29.20;9.83;;;-4.60;99.90;;;;;;4412095;28;661132;-76
2022/01/12 07:53:42;;;;;;;29.77;9.70;;;-4.60;99.90;;;;;;4388967;28;660071;-76
2022/01/12 07:56:30;;;;;;;26.17;9.47;;;-4.60;99.90;;;;;;4413235;28;659928;-76
2022/01/12 07:59:18;;;;;;;25.40;9.70;;;-4.60;99.90;;;;;;4387973;28;659806;-77
2022/01/12 08:02:07;;;;;;;28.47;9.80;;;-4.60;99.90;;;;;;4412986;28;660562;-76
2022/01/12 08:04:55;;;;;;;32.53;10.83;;;-4.50;99.90;;;;;;4381133;28;659772;-77
2022/01/12 08:07:42;;;;;;;23.10;9.00;;;-4.60;99.90;;;;;;4390276;28;660850;-77
2022/01/12 08:10:30;;;;;;;26.97;10.30;;;-4.60;99.90;;;;;;4413304;28;660058;-76
2022/01/12 08:13:18;;;;;;;26.63;10.80;;;-4.60;99.90;;;;;;4389655;28;661145;-76
2022/01/12 08:16:06;;;;;;;27.63;10.32;;;-4.60;99.90;;;;;;4411406;28;661014;-77
2022/01/12 08:18:56;;;;;;;27.97;10.03;;;-4.50;99.90;;;;;;4389385;28;661073;-76
2022/01/12 08:21:43;;;;;;;26.17;9.40;;;-4.50;99.90;;;;;;4377243;28;661064;-77
2022/01/12 08:24:31;;;;;;;25.27;9.37;;;-4.40;99.90;;;;;;4389476;28;659502;-76
2022/01/12 08:27:19;;;;;;;25.57;10.20;;;-4.40;99.90;;;;;;4352318;28;659758;-76
2022/01/12 08:30:15;;;;;;;30.80;10.70;;;-4.30;99.90;;;;;;4384980;28;660212;-76
2022/01/12 08:33:04;;;;;;;39.20;12.20;;;-4.30;99.90;;;;;;4346731;28;661069;-77
2022/01/12 08:35:54;;;;;;;26.20;10.37;;;-4.20;99.90;;;;;;4390586;28;661218;-77
2022/01/12 08:38:41;;;;;;;29.93;10.87;;;-4.20;99.90;;;;;;4375371;28;660845;-77
2022/01/12 08:41:29;;;;;;;27.80;10.27;;;-4.10;99.90;;;;;;4372261;28;660949;-77
2022/01/12 08:44:17;;;;;;;30.10;10.30;;;-4.10;99.90;;;;;;4389877;28;660617;-77
2022/01/12 08:47:06;;;;;;;25.45;10.25;;;-4.10;99.90;;;;;;4370560;28;661474;-76
2022/01/12 08:50:04;;;;;;;31.50;10.68;;;-4.20;99.90;;;;;;4360492;28;660907;-77
2022/01/12 08:52:53;;;;;;;28.47;9.53;;;-4.20;99.90;;;;;;4367264;28;661090;-76
2022/01/12 08:55:41;;;;;;;32.50;11.67;;;-4.10;99.90;;;;;;4384176;28;659853;-77
2022/01/12 08:58:28;;;;;;;29.50;10.53;;;-4.10;99.90;;;;;;4389369;28;660772;-77
2022/01/12 09:01:16;;;;;;;38.87;13.73;;;-4.10;99.90;;;;;;4408119;28;660610;-76
2022/01/12 09:04:04;;;;;;;32.67;11.20;;;-4.00;99.90;;;;;;4388992;28;660704;-77
2022/01/12 09:06:52;;;;;;;29.07;10.70;;;-3.90;99.90;;;;;;4407687;28;660992;-76
2022/01/12 09:09:41;;;;;;;49.30;16.70;;;-3.90;99.90;;;;;;4385842;28;661426;-77
2022/01/12 09:12:29;;;;;;;122.30;26.20;;;-4.00;99.90;;;;;;4362068;28;661361;-76
2022/01/12 09:15:17;;;;;;;32.00;12.77;;;-3.90;99.90;;;;;;4394188;28;661462;-76
2022/01/12 09:18:04;;;;;;;27.60;12.70;;;-3.80;99.90;;;;;;4377507;28;661064;-77
2022/01/12 09:20:57;;;;;;;30.55;11.63;;;-3.70;99.90;;;;;;4382810;28;660727;-77
2022/01/12 09:23:45;;;;;;;30.67;11.70;;;-3.60;99.90;;;;;;4385880;28;660996;-77
2022/01/12 09:26:34;;;;;;;32.20;11.80;;;-3.70;99.90;;;;;;4360128;28;660633;-77
2022/01/12 09:29:21;;;;;;;34.03;11.83;;;-3.70;99.90;;;;;;4381463;28;660154;-77
2022/01/12 09:32:09;;;;;;;34.03;12.17;;;-3.70;99.90;;;;;;4359567;28;661472;-76
2022/01/12 09:34:57;;;;;;;35.83;12.43;;;-3.60;99.90;;;;;;4388368;28;660617;-76
2022/01/12 09:37:44;;;;;;;31.77;11.57;;;-3.60;99.90;;;;;;4345903;28;660645;-76
2022/01/12 09:40:34;;;;;;;37.70;13.13;;;-3.60;99.90;;;;;;4364805;28;661087;-77
2022/01/12 09:43:27;;;;;;;44.50;16.27;;;-3.60;99.90;;;;;;4377669;28;660468;-76
2022/01/12 09:46:15;;;;;;;42.93;13.57;;;-3.40;99.90;;;;;;4373594;28;661054;-76
2022/01/12 09:49:06;;;;;;;33.83;12.70;;;-3.40;99.90;;;;;;4366935;28;661421;-76
2022/01/12 09:51:55;;;;;;;34.25;11.75;;;-3.40;99.90;;;;;;4372293;28;660678;-76
2022/01/12 09:54:43;;;;;;;34.67;12.33;;;-3.30;99.90;;;;;;4358594;28;661466;-77
2022/01/12 09:57:30;;;;;;;32.73;13.30;;;-3.30;99.90;;;;;;4396928;28;661032;-76
2022/01/12 10:00:23;;;;;;;31.63;10.97;;;-3.20;99.90;;;;;;4349657;28;660596;-77
2022/01/12 10:03:12;;;;;;;41.17;14.93;;;-3.30;99.90;;;;;;4349292;28;660791;-77
2022/01/12 10:06:00;;;;;;;53.27;18.97;;;-3.20;99.90;;;;;;4349846;28;661888;-77
2022/01/12 10:08:53;;;;;;;38.30;13.33;;;-3.20;99.90;;;;;;4386261;28;660725;-77
2022/01/12 10:11:50;;;;;;;58.60;15.37;;;-3.30;99.90;;;;;;4380390;28;660915;-77
2022/01/12 10:14:45;;;;;;;56.37;16.57;;;-3.20;99.90;;;;;;4336821;28;661033;-77
2022/01/12 10:17:38;;;;;;;38.40;13.47;;;-3.20;99.90;;;;;;4299629;28;660981;-77
2022/01/12 10:20:26;;;;;;;33.17;11.63;;;-3.10;99.90;;;;;;4330523;28;661948;-77
2022/01/12 10:23:15;;;;;;;37.83;12.20;;;-3.00;99.90;;;;;;4360130;28;661300;-77
2022/01/12 10:26:03;;;;;;;33.87;13.20;;;-3.00;99.90;;;;;;4380046;28;661451;-76
2022/01/12 10:28:50;;;;;;;37.13;13.03;;;-3.00;99.90;;;;;;4408799;28;660697;-76
2022/01/12 10:31:49;;;;;;;33.47;12.17;;;-2.90;99.90;;;;;;4384074;28;660723;-75
2022/01/12 10:34:40;;;;;;;34.92;12.07;;;-2.90;99.90;;;;;;4386817;28;660805;-74
2022/01/12 10:37:27;;;;;;;55.17;18.37;;;-2.80;99.90;;;;;;4371804;28;661193;-74
2022/01/12 10:40:15;;;;;;;40.63;12.03;;;-2.80;99.90;;;;;;4407708;28;661908;-75
2022/01/12 10:43:02;;;;;;;38.70;12.87;;;-2.60;99.90;;;;;;4387382;28;660859;-76
2022/01/12 10:45:50;;;;;;;37.28;13.75;;;-2.60;99.90;;;;;;4407222;28;664354;-74
2022/01/12 10:48:43;;;;;;;33.93;12.57;;;-2.50;99.90;;;;;;4363374;28;661254;-76
2022/01/12 10:51:32;;;;;;;45.20;15.57;;;-2.40;99.90;;;;;;4384364;28;661748;-74
2022/01/12 10:54:20;;;;;;;44.77;15.47;;;-2.40;99.90;;;;;;4384203;28;661412;-74
2022/01/12 10:57:18;;;;;;;36.77;12.33;;;-2.30;99.90;;;;;;4394229;28;661115;-77
2022/01/12 11:00:19;;;;;;;28.07;10.30;;;-2.30;99.90;;;;;;4375803;28;660924;-74
2022/01/12 11:03:07;;;;;;;30.42;11.65;;;-2.20;99.90;;;;;;4356826;28;660996;-75
2022/01/12 11:05:56;;;;;;;30.23;11.17;;;-2.00;99.90;;;;;;4381224;28;661824;-74
2022/01/12 11:08:48;;;;;;;31.70;11.70;;;-1.90;99.90;;;;;;4363690;28;660601;-74
2022/01/12 11:11:36;;;;;;;26.07;10.30;;;-2.10;99.90;;;;;;4366254;28;660986;-74
2022/01/12 11:14:23;;;;;;;30.93;11.03;;;-2.00;99.90;;;;;;4378755;28;661014;-75
2022/01/12 11:17:11;;;;;;;30.93;11.10;;;-2.00;99.90;;;;;;4394623;28;660465;-74
2022/01/12 11:20:12;;;;;;;27.87;11.10;;;-1.90;99.90;;;;;;4375835;28;662226;-74
2022/01/12 11:23:02;;;;;;;33.08;11.02;;;-2.00;99.90;;;;;;4351160;28;661019;-77
2022/01/12 11:25:53;;;;;;;29.77;11.33;;;-1.90;99.90;;;;;;4357230;28;661135;-74
2022/01/12 11:28:41;;;;;;;30.27;11.10;;;-2.10;99.90;;;;;;4373844;28;661020;-74
2022/01/12 11:31:29;;;;;;;30.77;11.47;;;-2.00;99.90;;;;;;4386974;28;660970;-74
2022/01/12 11:34:21;;;;;;;31.67;11.77;;;-2.00;99.90;;;;;;4388280;28;660616;-75
2022/01/12 11:37:15;;;;;;;26.03;10.07;;;-2.20;99.90;;;;;;4348957;28;661488;-75
2022/01/12 11:40:09;;;;;;;26.33;10.20;;;-2.40;99.90;;;;;;4342768;28;661948;-75
2022/01/12 11:42:59;;;;;;;26.13;10.87;;;-2.40;99.90;;;;;;4385097;28;661525;-74
2022/01/12 11:45:47;;;;;;;27.63;10.47;;;-2.50;99.90;;;;;;4387031;28;660761;-76
2022/01/12 11:48:37;;;;;;;25.57;10.60;;;-2.60;99.90;;;;;;4367225;28;661461;-75
2022/01/12 11:51:36;;;;;;;30.10;11.13;;;-2.80;99.90;;;;;;4371733;28;661162;-74
2022/01/12 11:54:24;;;;;;;31.20;10.40;;;-2.80;99.90;;;;;;4366902;28;661160;-75
2022/01/12 11:57:18;;;;;;;25.60;8.23;;;-2.90;99.90;;;;;;4381624;28;660601;-76
2022/01/12 12:00:11;;;;;;;25.17;9.35;;;-2.90;99.90;;;;;;4366343;28;660146;-78
2022/01/12 12:03:00;;;;;;;29.93;10.70;;;-3.00;99.90;;;;;;4359578;28;659447;-77
2022/01/12 12:05:49;;;;;;;31.27;10.73;;;-3.10;99.90;;;;;;4349086;28;660836;-77
2022/01/12 12:08:40;;;;;;;21.87;8.10;;;-3.10;99.90;;;;;;4390794;28;660549;-78
2022/01/12 12:11:30;;;;;;;27.13;10.17;;;-3.10;99.90;;;;;;4328945;28;659656;-77
2022/01/12 12:14:20;;;;;;;25.23;10.02;;;-3.10;99.90;;;;;;4350686;28;660885;-78
2022/01/12 12:17:11;;;;;;;31.53;11.03;;;-3.20;99.90;;;;;;4344424;28;661426;-78
2022/01/12 12:19:59;;;;;;;33.47;11.20;;;-3.30;99.90;;;;;;4368420;28;661668;-77
2022/01/12 12:22:47;;;;;;;31.80;11.00;;;-3.30;99.90;;;;;;4377199;28;660720;-77
2022/01/12 12:25:35;;;;;;;26.43;10.27;;;-3.30;99.90;;;;;;4369675;28;661251;-77
2022/01/12 12:28:23;;;;;;;29.47;9.80;;;-3.20;99.90;;;;;;4374821;28;660787;-77
2022/01/12 12:31:10;;;;;;;24.30;9.47;;;-3.20;99.90;;;;;;4398299;28;659537;-77
2022/01/12 12:34:05;;;;;;;34.37;11.43;;;-3.20;99.90;;;;;;4374919;28;659670;-75
2022/01/12 12:36:58;;;;;;;33.00;11.00;;;-3.10;99.90;;;;;;4347954;28;661283;-75
2022/01/12 12:39:47;;;;;;;29.88;11.20;;;-3.10;99.90;;;;;;4353186;28;660854;-75
2022/01/12 12:42:38;;;;;;;37.47;12.03;;;-3.00;99.90;;;;;;4363540;28;661733;-75
2022/01/12 12:45:35;;;;;;;29.70;10.30;;;-2.90;99.90;;;;;;4364640;28;661124;-75
2022/01/12 12:48:23;;;;;;;26.17;10.03;;;-2.90;99.90;;;;;;4350653;28;661073;-75
2022/01/12 12:51:14;;;;;;;29.10;10.93;;;-2.90;99.90;;;;;;4379716;28;660839;-74
2022/01/12 12:54:02;;;;;;;36.93;11.53;;;-2.90;99.90;;;;;;4381422;28;660984;-77
2022/01/12 12:56:52;;;;;;;30.53;12.47;;;-3.00;99.90;;;;;;4369444;28;661739;-74
2022/01/12 12:59:40;;;;;;;35.00;11.67;;;-3.10;99.90;;;;;;4369258;28;660791;-74
2022/01/12 13:02:35;;;;;;;41.57;14.30;;;-3.20;99.90;;;;;;4368329;28;660595;-75
2022/01/12 13:05:23;;;;;;;38.30;12.95;;;-3.30;99.90;;;;;;4332616;28;660785;-78
2022/01/12 13:08:13;;;;;;;35.77;12.20;;;-3.30;99.90;;;;;;4379607;28;660518;-77
2022/01/12 13:11:06;;;;;;;42.60;13.80;;;-3.40;99.90;;;;;;4353420;28;661104;-77
2022/01/12 13:13:58;;;;;;;35.67;12.40;;;-3.40;99.90;;;;;;4340082;28;661182;-76
2022/01/12 13:16:46;;;;;;;37.13;12.57;;;-3.40;99.90;;;;;;4367541;28;661241;-76
2022/01/12 13:21:07;;;;;;;43.20;13.13;;;-3.40;99.90;;;;;;4367661;28;660711;-77
2022/01/12 13:22:44;;;;;;;38.70;13.27;;;-3.40;99.90;;;;;;4330085;28;660789;-77
2022/01/12 13:25:34;;;;;;;31.13;11.63;;;-3.50;99.90;;;;;;4387989;28;660627;-77
2022/01/12 13:28:21;;;;;;;34.70;11.50;;;-3.40;99.90;;;;;;4374213;28;660783;-77
2022/01/12 13:31:11;;;;;;;39.23;13.20;;;-3.40;99.90;;;;;;4370674;28;661028;-77
2022/01/12 13:34:02;;;;;;;40.43;14.40;;;-3.40;99.90;;;;;;4379242;28;661233;-76
2022/01/12 13:36:50;;;;;;;38.33;14.13;;;-3.40;99.90;;;;;;4368164;28;661350;-77
2022/01/12 13:39:37;;;;;;;43.97;15.80;;;-3.40;99.90;;;;;;4372515;28;660852;-77
2022/01/12 13:42:26;;;;;;;41.75;15.05;;;-3.40;99.90;;;;;;4403345;28;662089;-77
2022/01/12 13:45:17;;;;;;;38.60;13.73;;;-3.30;99.90;;;;;;4372970;28;662264;-77
2022/01/12 13:48:12;;;;;;;43.33;14.00;;;-3.30;99.90;;;;;;4344684;28;660998;-75
2022/01/12 13:51:03;;;;;;;47.83;14.67;;;-3.30;99.90;;;;;;4353852;28;660677;-76
2022/01/12 13:53:50;;;;;;;38.87;13.73;;;-3.40;99.90;;;;;;4376089;28;660940;-76
2022/01/12 13:56:39;;;;;;;36.73;14.07;;;-3.40;99.90;;;;;;4377107;28;660820;-76
2022/01/12 13:59:30;;;;;;;41.10;14.43;;;-3.50;99.90;;;;;;4371970;28;660904;-76
2022/01/12 14:02:19;;;;;;;41.30;14.27;;;-3.50;99.90;;;;;;4371233;28;661469;-77
2022/01/12 14:05:09;;;;;;;43.20;14.57;;;-3.60;99.90;;;;;;4391293;28;661453;-76
2022/01/12 14:08:04;;;;;;;38.47;14.20;;;-3.50;99.90;;;;;;4361797;28;660934;-77
2022/01/12 14:10:54;;;;;;;37.07;12.37;;;-3.60;99.90;;;;;;4356682;28;660908;-78
2022/01/12 14:13:41;;;;;;;39.80;12.97;;;-3.60;99.90;;;;;;4366294;28;661244;-77
2022/01/12 14:16:31;;;;;;;42.47;16.47;;;-3.60;99.90;;;;;;4367725;28;661263;-77
2022/01/12 14:19:21;;;;;;;42.13;15.07;;;-3.60;99.90;;;;;;4371567;28;660520;-76
2022/01/12 14:22:16;;;;;;;34.70;12.00;;;-3.60;99.90;;;;;;4371753;28;660816;-76
2022/01/12 14:25:10;;;;;;;33.90;12.43;;;-3.70;99.90;;;;;;4371723;28;660835;-77
2022/01/12 14:27:57;;;;;;;34.42;12.93;;;-3.60;99.90;;;;;;4372478;28;661252;-76
2022/01/12 14:30:46;;;;;;;35.50;12.03;;;-3.60;99.90;;;;;;4392541;28;660981;-76
2022/01/12 14:33:35;;;;;;;39.10;14.13;;;-3.70;99.90;;;;;;4375164;28;660554;-77
2022/01/12 14:36:22;;;;;;;37.97;13.73;;;-3.70;99.90;;;;;;4376093;28;661038;-77
2022/01/12 14:39:11;;;;;;;21.67;7.30;;;-3.70;99.90;;;;;;4381279;28;660930;-75
2022/01/12 14:41:59;;;;;;;40.37;14.40;;;-3.80;99.90;;;;;;4376488;28;660828;-77
2022/01/12 14:44:48;;;;;;;36.87;13.50;;;-3.80;99.90;;;;;;4357554;28;661419;-77
2022/01/12 14:47:35;;;;;;;39.53;14.00;;;-3.80;99.90;;;;;;4394586;28;661340;-76
2022/01/12 14:50:25;;;;;;;39.58;14.05;;;-3.80;99.90;;;;;;4364606;28;660738;-77
2022/01/12 14:53:12;;;;;;;35.20;15.25;;;-3.80;99.90;;;;;;4369093;28;660872;-76
2022/01/12 14:56:04;;;;;;;41.03;15.63;;;-3.80;99.90;;;;;;4374353;28;661721;-76
2022/01/12 14:58:51;;;;;;;47.40;15.90;;;-3.90;99.90;;;;;;4361468;28;660425;-76
2022/01/12 15:01:41;;;;;;;46.03;15.90;;;-3.90;99.90;;;;;;4345711;28;661718;-76
2022/01/12 15:04:30;;;;;;;50.63;18.85;;;-3.90;99.90;;;;;;4350946;28;661974;-76
2022/01/12 15:07:19;;;;;;;36.43;12.37;;;-3.90;99.90;;;;;;4382951;28;660936;-77
2022/01/12 15:10:08;;;;;;;43.20;13.57;;;-4.00;99.90;;;;;;4401444;28;660892;-77
2022/01/12 15:13:02;;;;;;;53.70;18.47;;;-4.00;99.90;;;;;;4388297;28;661357;-76